臺北飛航情報區 - 掃描席(區管/近場)

METAR RCTP 251000Z 05018KT 9999 FEW008 BKN012 BKN020 26/23 Q1010 NOSIG RMK A2983=

站台狀態:Online
最後更新:2022-09-25 18:00:02